Alta, California
Current Conditions -  °F | °C
As of 3:52 AM on Friday 24 Oct 2014 (Local Time) from KBLU Reporting Station
Clear Clear  
Wind Chill: 53°   Ceiling: Unl
Heat Index: 53°   Visibility: 10mi
Dew Point: 29°   Wind: 9mph
Humidity: 40%   Direction: 150°SSE
Pressure: 30.11"   Gusts: 18mph
Location:  39.21°N, 120.81°W
Report Text: KBLU 241052Z AUTO 15008G16KT 10SM CLR 12/M02 A3011 RMK AO2 SLP145 T01171017 $
Loading
Personal Weather Stations






























Interactive Weather Map
Tropical Storm Tracking
New forecast layout! Learn more

10-Day Weather Forecast

Advertisements
Track Severe Weather on mobile